Time;durP1;ratioP1;P1;durP2;ratioP2;P2;SDS_P1;SDS_P2;PMS_P1;PMS_P2;Temp;Humidity;BMP_temperature;BMP_pressure;BME280_temperature;BME280_humidity;BME280_pressure;Samples;Min_cycle;Max_cycle;Signal;HPM_P1;HPM_P2
2023/03/23 00:00:16;;;;;;;8.05;2.85;;;10.60;80.10;;;;;;4920965;29;20055;-71
2023/03/23 00:02:43;;;;;;;5.70;2.80;;;10.60;79.90;;;;;;4925749;29;20051;-71
2023/03/23 00:05:09;;;;;;;5.40;2.20;;;10.60;79.80;;;;;;4923532;29;20048;-71
2023/03/23 00:07:35;;;;;;;11.07;3.08;;;10.60;80.00;;;;;;4927746;29;20071;-71
2023/03/23 00:10:02;;;;;;;16.40;2.75;;;10.60;79.80;;;;;;4923996;29;20962;-71
2023/03/23 00:12:33;;;;;;;16.60;2.80;;;10.60;80.50;;;;;;4928076;29;20055;-72
2023/03/23 00:18:40;;;;;;;7.55;3.20;;;10.60;81.50;;;;;;5022425;23;20087;-71
2023/03/23 00:21:07;;;;;;;8.43;2.80;;;10.60;82.40;;;;;;5004806;28;20144;-71
2023/03/23 00:23:32;;;;;;;10.60;2.83;;;10.60;83.00;;;;;;5001407;28;20056;-71
2023/03/23 00:25:58;;;;;;;7.45;2.78;;;10.60;82.80;;;;;;5003069;28;20046;-71
2023/03/23 00:28:26;;;;;;;7.45;2.75;;;10.60;82.80;;;;;;5003394;28;20041;-71
2023/03/23 00:31:01;;;;;;;9.57;3.05;;;10.60;84.10;;;;;;5004465;28;20145;-71
2023/03/23 00:33:28;;;;;;;6.35;3.05;;;10.60;85.30;;;;;;5004617;28;20049;-72
2023/03/23 00:35:55;;;;;;;8.75;3.05;;;10.40;86.90;;;;;;4997816;28;20050;-71
2023/03/23 00:38:22;;;;;;;5.38;3.03;;;10.40;87.80;;;;;;5004088;28;20045;-71
2023/03/23 00:40:48;;;;;;;9.82;3.95;;;10.20;89.60;;;;;;4988434;28;20077;-71
2023/03/23 00:43:16;;;;;;;7.97;3.65;;;10.10;90.50;;;;;;5001916;28;20038;-71
2023/03/23 00:45:44;;;;;;;11.40;3.30;;;10.00;91.70;;;;;;5001509;28;20054;-71
2023/03/23 00:48:12;;;;;;;13.35;3.28;;;9.90;92.40;;;;;;4993043;28;20116;-71
2023/03/23 00:50:39;;;;;;;11.07;3.70;;;9.90;93.10;;;;;;5003829;28;20061;-71
2023/03/23 00:53:05;;;;;;;12.05;3.85;;;9.80;93.70;;;;;;4986309;28;20045;-71
2023/03/23 00:55:31;;;;;;;13.25;3.67;;;9.70;94.40;;;;;;5004330;28;20049;-71
2023/03/23 00:57:57;;;;;;;7.22;3.42;;;9.70;94.90;;;;;;4987695;28;20763;-71
2023/03/23 01:00:23;;;;;;;6.70;3.15;;;9.60;95.20;;;;;;5003905;28;20056;-71
2023/03/23 01:02:55;;;;;;;7.68;3.90;;;9.50;96.00;;;;;;5005647;28;20076;-71
2023/03/23 01:05:21;;;;;;;12.63;4.05;;;9.50;96.30;;;;;;5002968;28;20042;-72
2023/03/23 01:07:48;;;;;;;10.00;3.70;;;9.40;96.90;;;;;;4986043;28;20053;-72
2023/03/23 01:10:17;;;;;;;5.47;3.10;;;9.30;97.60;;;;;;5002591;28;20145;-72
2023/03/23 01:12:46;;;;;;;10.00;3.53;;;9.30;98.00;;;;;;5002500;28;20063;-73
2023/03/23 01:15:16;;;;;;;10.75;3.70;;;9.30;98.60;;;;;;5004229;28;20053;-72
2023/03/23 01:17:43;;;;;;;12.30;3.88;;;9.20;99.00;;;;;;5002520;28;20057;-73
2023/03/23 01:20:10;;;;;;;17.48;3.45;;;9.20;99.60;;;;;;5007069;28;20076;-72
2023/03/23 01:22:37;;;;;;;9.02;4.03;;;9.10;99.80;;;;;;5008878;28;20056;-73
2023/03/23 01:25:04;;;;;;;10.23;4.10;;;9.10;100.00;;;;;;4988169;28;20041;-73
2023/03/23 01:27:29;;;;;;;18.77;4.38;;;9.10;100.00;;;;;;5007096;28;20081;-73
2023/03/23 01:29:55;;;;;;;11.13;4.45;;;9.10;100.00;;;;;;5008210;28;20053;-73
2023/03/23 01:32:21;;;;;;;11.10;4.55;;;9.10;100.00;;;;;;5002751;28;20053;-73
2023/03/23 01:34:47;;;;;;;9.00;4.10;;;9.00;100.00;;;;;;5006714;28;20050;-73
2023/03/23 01:37:13;;;;;;;15.98;4.65;;;9.00;100.00;;;;;;5006402;28;20053;-73
2023/03/23 01:39:38;;;;;;;9.35;4.03;;;9.00;100.00;;;;;;4987828;28;20045;-73
2023/03/23 01:42:04;;;;;;;9.73;5.18;;;9.00;100.00;;;;;;4983878;28;20120;-73
2023/03/23 01:44:30;;;;;;;19.67;4.72;;;9.00;100.00;;;;;;5001891;28;20052;-73
2023/03/23 01:46:57;;;;;;;14.90;4.55;;;9.00;100.00;;;;;;5006181;28;20049;-72
2023/03/23 01:49:45;;;;;;;14.68;5.13;;;9.00;100.00;;;;;;5011954;28;20520;-73
2023/03/23 01:52:23;;;;;;;16.17;4.85;;;8.90;100.00;;;;;;5004495;28;20041;-72
2023/03/23 01:54:52;;;;;;;12.73;5.13;;;8.90;100.00;;;;;;5006297;28;20045;-73
2023/03/23 01:57:23;;;;;;;14.05;4.97;;;8.90;100.00;;;;;;5009448;28;20551;-73
2023/03/23 01:59:52;;;;;;;14.65;5.13;;;8.90;100.00;;;;;;5002953;28;20522;-73
2023/03/23 02:02:21;;;;;;;9.48;5.03;;;8.90;100.00;;;;;;5013103;28;20088;-73
2023/03/23 02:04:46;;;;;;;19.17;5.28;;;8.90;100.00;;;;;;5005819;28;20073;-73
2023/03/23 02:07:16;;;;;;;17.45;6.40;;;8.90;100.00;;;;;;5006871;28;20096;-73
2023/03/23 02:09:42;;;;;;;15.20;5.68;;;8.80;100.00;;;;;;4990624;28;20052;-73
2023/03/23 02:12:08;;;;;;;11.82;4.20;;;8.80;100.00;;;;;;5008486;28;20068;-73
2023/03/23 02:14:34;;;;;;;16.67;5.05;;;8.80;100.00;;;;;;5009788;28;20081;-73
2023/03/23 02:17:05;;;;;;;15.20;6.03;;;8.80;100.00;;;;;;5006069;28;20443;-73
2023/03/23 02:19:37;;;;;;;10.70;4.57;;;8.80;100.00;;;;;;5006847;28;20041;-73
2023/03/23 02:22:21;;;;;;;13.80;4.93;;;8.80;100.00;;;;;;5003184;28;20624;-73
2023/03/23 02:25:05;;;;;;;12.98;5.65;;;8.70;100.00;;;;;;4985778;28;20041;-73
2023/03/23 02:27:47;;;;;;;14.50;5.63;;;8.70;100.00;;;;;;5007040;28;20129;-73
2023/03/23 02:30:27;;;;;;;12.82;5.13;;;8.70;100.00;;;;;;5000979;28;20057;-73
2023/03/23 02:33:39;;;;;;;13.65;4.90;;;8.70;100.00;;;;;;4976148;28;20100;-73
2023/03/23 02:36:33;;;;;;;11.70;5.32;;;8.70;100.00;;;;;;4946833;28;20046;-72
2023/03/23 02:39:19;;;;;;;16.05;5.38;;;8.70;100.00;;;;;;4945803;28;20038;-73
2023/03/23 02:41:53;;;;;;;19.88;5.72;;;8.70;100.00;;;;;;4996546;28;20049;-73
2023/03/23 02:44:20;;;;;;;20.05;6.03;;;8.70;100.00;;;;;;5004792;28;20082;-73
2023/03/23 02:46:47;;;;;;;27.25;6.28;;;8.60;100.00;;;;;;5003311;28;20126;-73
2023/03/23 02:49:15;;;;;;;17.92;5.55;;;8.70;100.00;;;;;;5004315;28;20493;-73
2023/03/23 02:51:44;;;;;;;14.02;5.80;;;8.70;100.00;;;;;;5005371;28;20710;-73
2023/03/23 02:54:11;;;;;;;14.15;5.72;;;8.70;100.00;;;;;;5006079;28;20509;-73
2023/03/23 02:56:39;;;;;;;16.83;6.13;;;8.60;100.00;;;;;;5012614;28;20057;-73
2023/03/23 02:59:05;;;;;;;15.20;5.97;;;8.60;100.00;;;;;;4999940;28;20525;-73
2023/03/23 03:01:32;;;;;;;17.67;6.75;;;8.60;100.00;;;;;;5001149;28;20049;-73
2023/03/23 03:04:03;;;;;;;16.58;6.70;;;8.60;100.00;;;;;;5005885;28;20049;-74
2023/03/23 03:06:39;;;;;;;16.20;6.85;;;8.70;100.00;;;;;;4985131;28;20041;-74
2023/03/23 03:09:25;;;;;;;14.73;6.65;;;8.60;100.00;;;;;;5003535;28;20041;-74
2023/03/23 03:11:56;;;;;;;22.77;6.18;;;8.70;100.00;;;;;;5003600;28;20509;-74
2023/03/23 03:14:38;;;;;;;15.10;6.30;;;8.70;100.00;;;;;;4987522;28;20520;-74
2023/03/23 03:17:10;;;;;;;19.55;7.03;;;8.70;100.00;;;;;;5006397;28;20073;-74
2023/03/23 03:19:41;;;;;;;12.63;6.65;;;8.70;100.00;;;;;;5004736;28;20163;-74
2023/03/23 03:22:08;;;;;;;25.90;7.80;;;8.70;100.00;;;;;;5004332;28;20052;-74
2023/03/23 03:24:40;;;;;;;17.33;7.03;;;8.70;100.00;;;;;;5004083;28;20037;-74
2023/03/23 03:27:14;;;;;;;18.95;7.15;;;8.70;100.00;;;;;;4989676;28;20115;-74
2023/03/23 03:29:41;;;;;;;22.73;7.50;;;8.70;100.00;;;;;;5004166;28;20084;-73
2023/03/23 03:32:12;;;;;;;16.45;7.00;;;8.70;100.00;;;;;;4986521;28;20101;-73
2023/03/23 03:34:38;;;;;;;23.95;8.60;;;8.70;100.00;;;;;;5001111;28;20055;-73
2023/03/23 03:37:05;;;;;;;19.60;7.07;;;8.70;100.00;;;;;;5004806;28;20052;-74
2023/03/23 03:39:36;;;;;;;21.05;7.63;;;8.70;100.00;;;;;;5003229;28;20119;-73
2023/03/23 03:42:03;;;;;;;22.98;6.88;;;8.70;100.00;;;;;;4984482;28;20056;-73
2023/03/23 03:44:29;;;;;;;27.88;7.38;;;8.70;100.00;;;;;;4999206;28;20056;-73
2023/03/23 03:46:55;;;;;;;21.67;7.32;;;8.70;100.00;;;;;;4991852;28;20080;-73
2023/03/23 03:49:22;;;;;;;22.55;6.80;;;8.70;100.00;;;;;;5003673;28;20136;-73
2023/03/23 03:51:48;;;;;;;26.58;7.82;;;8.70;100.00;;;;;;5004312;28;20053;-72
2023/03/23 03:54:13;;;;;;;20.63;7.35;;;8.70;100.00;;;;;;4986003;28;20041;-73
2023/03/23 03:56:42;;;;;;;18.83;7.35;;;8.70;100.00;;;;;;5002306;28;20053;-73
2023/03/23 03:59:09;;;;;;;13.48;6.50;;;8.60;100.00;;;;;;5003326;28;20038;-73
2023/03/23 04:01:37;;;;;;;16.40;6.90;;;8.60;100.00;;;;;;5004731;28;20041;-73
2023/03/23 04:04:04;;;;;;;19.02;7.38;;;8.60;100.00;;;;;;4998912;28;20076;-73
2023/03/23 04:06:32;;;;;;;18.35;6.90;;;8.60;100.00;;;;;;5005665;28;20914;-73
2023/03/23 04:08:58;;;;;;;16.77;6.95;;;8.60;100.00;;;;;;4997755;28;20079;-73
2023/03/23 04:11:26;;;;;;;20.40;7.30;;;8.60;100.00;;;;;;4987108;28;20148;-73
2023/03/23 04:13:52;;;;;;;16.83;7.40;;;8.60;100.00;;;;;;5003508;28;20045;-73
2023/03/23 04:16:18;;;;;;;23.05;7.80;;;8.60;100.00;;;;;;4982777;28;20042;-73
2023/03/23 04:18:44;;;;;;;16.55;7.03;;;8.60;100.00;;;;;;5003228;28;20041;-73
2023/03/23 04:21:10;;;;;;;25.73;8.40;;;8.60;100.00;;;;;;4988031;28;20045;-73
2023/03/23 04:23:38;;;;;;;15.75;7.40;;;8.60;100.00;;;;;;5001997;28;20948;-73
2023/03/23 04:26:04;;;;;;;22.80;8.07;;;8.60;100.00;;;;;;5002310;28;20041;-73
2023/03/23 04:28:33;;;;;;;27.88;7.88;;;8.60;100.00;;;;;;5001267;28;20056;-73
2023/03/23 04:31:00;;;;;;;22.77;7.25;;;8.60;100.00;;;;;;4997451;28;20819;-73
2023/03/23 04:33:27;;;;;;;18.00;7.78;;;8.60;100.00;;;;;;5002830;28;20053;-73
2023/03/23 04:35:54;;;;;;;19.47;8.03;;;8.60;100.00;;;;;;5001975;28;20053;-73
2023/03/23 04:38:23;;;;;;;19.50;8.10;;;8.60;100.00;;;;;;5002522;28;20629;-73
2023/03/23 04:40:53;;;;;;;18.02;8.20;;;8.60;100.00;;;;;;5004037;28;20049;-74
2023/03/23 04:43:24;;;;;;;21.30;8.38;;;8.70;100.00;;;;;;5007459;28;20095;-73
2023/03/23 04:45:58;;;;;;;29.23;9.27;;;8.70;100.00;;;;;;5003477;28;20041;-73
2023/03/23 04:48:25;;;;;;;25.08;7.75;;;8.70;100.00;;;;;;5001928;28;20042;-74
2023/03/23 04:50:52;;;;;;;18.77;8.27;;;8.70;100.00;;;;;;5002795;28;20100;-74
2023/03/23 04:53:18;;;;;;;17.17;8.57;;;8.70;100.00;;;;;;5004596;28;20057;-73
2023/03/23 04:55:44;;;;;;;18.02;8.60;;;8.70;100.00;;;;;;5005103;28;20049;-74
2023/03/23 04:58:14;;;;;;;21.73;8.88;;;8.70;100.00;;;;;;4985315;28;20171;-74
2023/03/23 05:00:43;;;;;;;23.63;9.55;;;8.80;100.00;;;;;;5006982;28;20128;-74
2023/03/23 05:03:10;;;;;;;18.50;8.57;;;8.80;100.00;;;;;;5002005;28;20065;-74
2023/03/23 05:05:36;;;;;;;21.35;9.35;;;8.80;100.00;;;;;;4992696;28;20049;-74
2023/03/23 05:08:01;;;;;;;26.90;8.90;;;8.80;100.00;;;;;;4994951;28;20159;-74
2023/03/23 05:10:27;;;;;;;23.20;9.00;;;8.80;100.00;;;;;;5007580;28;20551;-74
2023/03/23 05:12:54;;;;;;;24.92;9.38;;;8.80;100.00;;;;;;5000978;28;20660;-74
2023/03/23 05:15:20;;;;;;;26.15;9.77;;;8.80;100.00;;;;;;4991252;28;20060;-73
2023/03/23 05:17:46;;;;;;;23.55;10.73;;;8.80;100.00;;;;;;5006242;28;20041;-74
2023/03/23 05:20:14;;;;;;;21.17;10.07;;;8.80;100.00;;;;;;5006214;28;20637;-73
2023/03/23 05:22:41;;;;;;;22.02;10.13;;;8.90;100.00;;;;;;5005803;28;20494;-73
2023/03/23 05:25:18;;;;;;;26.23;10.40;;;8.90;100.00;;;;;;5001015;28;20055;-73
2023/03/23 05:27:48;;;;;;;24.92;10.88;;;8.90;100.00;;;;;;5008298;28;20049;-73
2023/03/23 05:30:16;;;;;;;25.70;10.27;;;8.90;100.00;;;;;;5004197;28;20049;-73
2023/03/23 05:32:44;;;;;;;21.90;9.48;;;8.90;100.00;;;;;;5001671;28;20045;-73
2023/03/23 05:35:11;;;;;;;26.15;10.20;;;8.90;100.00;;;;;;5003042;28;20045;-73
2023/03/23 05:37:38;;;;;;;20.23;9.20;;;8.90;100.00;;;;;;5004017;28;20053;-73
2023/03/23 05:40:05;;;;;;;26.33;10.02;;;8.90;100.00;;;;;;5003023;28;20644;-73
2023/03/23 05:42:35;;;;;;;26.70;10.50;;;8.90;100.00;;;;;;5004012;28;20816;-73
2023/03/23 05:45:05;;;;;;;22.35;10.45;;;9.00;100.00;;;;;;4987648;28;20104;-73
2023/03/23 05:47:32;;;;;;;24.95;10.40;;;8.90;100.00;;;;;;5006996;28;20053;-73
2023/03/23 05:49:58;;;;;;;24.50;11.15;;;9.00;100.00;;;;;;4987596;28;20431;-73
2023/03/23 05:52:24;;;;;;;23.70;10.25;;;9.00;100.00;;;;;;5032454;28;20056;-72
2023/03/23 05:54:51;;;;;;;21.15;10.38;;;9.00;100.00;;;;;;5002283;28;20144;-72
2023/03/23 05:57:18;;;;;;;26.10;10.48;;;9.00;100.00;;;;;;5001185;28;20123;-73
2023/03/23 05:59:44;;;;;;;23.55;10.05;;;9.10;100.00;;;;;;4989383;28;20080;-72
2023/03/23 06:02:11;;;;;;;23.00;10.52;;;9.10;100.00;;;;;;5001909;28;20044;-74
2023/03/23 06:04:37;;;;;;;26.23;11.48;;;9.10;100.00;;;;;;4999842;28;20616;-75
2023/03/23 06:07:04;;;;;;;22.08;10.35;;;9.10;100.00;;;;;;5006170;28;20117;-78
2023/03/23 06:09:30;;;;;;;26.98;10.50;;;9.20;100.00;;;;;;5005512;28;20072;-72
2023/03/23 06:11:57;;;;;;;23.38;10.30;;;9.20;100.00;;;;;;5007961;28;20053;-74
2023/03/23 06:14:22;;;;;;;30.63;11.35;;;9.20;100.00;;;;;;5010433;28;20052;-74
2023/03/23 06:16:48;;;;;;;27.17;10.75;;;9.20;100.00;;;;;;5005311;28;20049;-75
2023/03/23 06:19:15;;;;;;;23.42;11.52;;;9.20;100.00;;;;;;4993841;28;20905;-75
2023/03/23 06:21:42;;;;;;;25.05;10.30;;;9.20;100.00;;;;;;5007815;28;20077;-73
2023/03/23 06:24:08;;;;;;;23.58;11.18;;;9.20;100.00;;;;;;5008304;28;20116;-74
2023/03/23 06:26:37;;;;;;;27.63;11.10;;;9.30;100.00;;;;;;4992806;28;20080;-78
2023/03/23 06:29:10;;;;;;;19.90;9.82;;;9.30;100.00;;;;;;5004917;28;20052;-75
2023/03/23 06:31:41;;;;;;;24.05;9.73;;;9.30;100.00;;;;;;5003771;28;20104;-74
2023/03/23 06:34:08;;;;;;;28.15;9.93;;;9.30;100.00;;;;;;5005505;28;20111;-73
2023/03/23 06:36:35;;;;;;;24.02;10.35;;;9.30;100.00;;;;;;5005341;28;20099;-74
2023/03/23 06:39:04;;;;;;;20.52;10.10;;;9.40;100.00;;;;;;4990796;28;20034;-72
2023/03/23 06:41:33;;;;;;;20.70;9.85;;;9.40;100.00;;;;;;5003055;28;20097;-72
2023/03/23 06:44:00;;;;;;;24.92;9.63;;;9.40;100.00;;;;;;4987578;28;20056;-72
2023/03/23 06:46:26;;;;;;;27.98;9.38;;;9.40;100.00;;;;;;4989334;28;20600;-71
2023/03/23 06:48:52;;;;;;;21.73;8.98;;;9.40;100.00;;;;;;5006116;28;20049;-71
2023/03/23 06:51:18;;;;;;;20.90;9.60;;;9.50;100.00;;;;;;5006279;28;20053;-71
2023/03/23 06:53:44;;;;;;;21.38;9.40;;;9.50;100.00;;;;;;5007095;28;20627;-72
2023/03/23 06:56:11;;;;;;;19.20;9.98;;;9.50;100.00;;;;;;4984257;28;20052;-71
2023/03/23 06:58:37;;;;;;;20.30;8.57;;;9.60;100.00;;;;;;4989043;28;20057;-72
2023/03/23 07:01:03;;;;;;;21.33;9.40;;;9.60;100.00;;;;;;5004871;28;20045;-72
2023/03/23 07:03:30;;;;;;;28.30;9.55;;;9.60;100.00;;;;;;5007047;28;20052;-72
2023/03/23 07:05:56;;;;;;;18.55;9.75;;;9.60;100.00;;;;;;4999948;28;20041;-72
2023/03/23 07:08:22;;;;;;;24.42;9.05;;;9.60;100.00;;;;;;5005416;28;20080;-72
2023/03/23 07:10:52;;;;;;;16.67;8.98;;;9.60;100.00;;;;;;4990377;28;20132;-72
2023/03/23 07:13:18;;;;;;;19.58;8.90;;;9.60;100.00;;;;;;5005958;28;20536;-72
2023/03/23 07:15:45;;;;;;;21.02;7.72;;;9.60;100.00;;;;;;5004279;28;20071;-72
2023/03/23 07:18:10;;;;;;;20.70;8.90;;;9.70;100.00;;;;;;5006330;28;20064;-72
2023/03/23 07:20:37;;;;;;;21.60;8.63;;;9.70;100.00;;;;;;5003020;28;20041;-72
2023/03/23 07:23:05;;;;;;;17.27;8.25;;;9.70;100.00;;;;;;5004126;28;20050;-72
2023/03/23 07:25:32;;;;;;;15.68;7.82;;;9.70;100.00;;;;;;5005794;28;20049;-72
2023/03/23 07:27:59;;;;;;;24.33;7.45;;;9.70;100.00;;;;;;5006628;28;20053;-72
2023/03/23 07:30:26;;;;;;;21.38;7.18;;;9.80;100.00;;;;;;5006002;28;20060;-72
2023/03/23 07:32:52;;;;;;;19.27;7.57;;;9.80;100.00;;;;;;5006687;28;20802;-72
2023/03/23 07:35:18;;;;;;;18.45;7.25;;;9.80;100.00;;;;;;4998701;28;20453;-72
2023/03/23 07:37:45;;;;;;;17.00;6.93;;;9.90;100.00;;;;;;4989780;28;20038;-72
2023/03/23 07:40:14;;;;;;;20.02;7.53;;;9.90;100.00;;;;;;5007032;28;20450;-71
2023/03/23 07:42:45;;;;;;;18.92;7.32;;;10.00;100.00;;;;;;5007142;28;20048;-72
2023/03/23 07:45:12;;;;;;;26.63;7.45;;;10.00;100.00;;;;;;4989565;28;20458;-72
2023/03/23 07:47:39;;;;;;;19.17;7.07;;;10.00;100.00;;;;;;5004765;28;20049;-72
2023/03/23 07:50:06;;;;;;;15.32;6.63;;;10.10;100.00;;;;;;4983294;28;20898;-72
2023/03/23 07:52:34;;;;;;;19.10;6.50;;;10.10;100.00;;;;;;5008674;28;20056;-72
2023/03/23 07:55:01;;;;;;;17.52;6.40;;;10.20;100.00;;;;;;4992157;28;20076;-72
2023/03/23 07:57:28;;;;;;;16.25;6.10;;;10.20;100.00;;;;;;4989739;28;20112;-72
2023/03/23 07:59:53;;;;;;;18.25;6.78;;;10.30;100.00;;;;;;4992638;28;20045;-72
2023/03/23 08:02:19;;;;;;;13.68;6.10;;;10.50;100.00;;;;;;5008581;28;20049;-72
2023/03/23 08:04:47;;;;;;;12.07;5.95;;;10.60;100.00;;;;;;4989300;28;20111;-72
2023/03/23 08:07:13;;;;;;;13.70;5.85;;;10.60;99.50;;;;;;5005773;28;20053;-72
2023/03/23 08:09:39;;;;;;;14.38;6.38;;;10.70;99.60;;;;;;5006248;28;20041;-72
2023/03/23 08:12:05;;;;;;;12.65;5.88;;;10.90;100.00;;;;;;5006025;28;20930;-72
2023/03/23 08:14:32;;;;;;;11.93;5.97;;;11.10;100.00;;;;;;5005454;28;20057;-72
2023/03/23 08:16:58;;;;;;;11.00;5.63;;;11.20;97.80;;;;;;5003032;28;20056;-72
2023/03/23 08:19:24;;;;;;;12.32;5.38;;;11.30;96.90;;;;;;5005423;28;20168;-72
2023/03/23 08:21:50;;;;;;;12.90;5.80;;;11.30;97.30;;;;;;5005955;28;20124;-72
2023/03/23 08:24:16;;;;;;;13.23;5.43;;;11.30;97.70;;;;;;4986531;28;20034;-72
2023/03/23 08:26:42;;;;;;;13.60;5.57;;;11.70;96.90;;;;;;4989225;28;20053;-72
2023/03/23 08:29:08;;;;;;;13.52;4.63;;;12.00;95.50;;;;;;5009960;28;20056;-72
2023/03/23 08:31:35;;;;;;;9.40;4.70;;;12.60;93.70;;;;;;5008687;28;20059;-72
2023/03/23 08:34:04;;;;;;;11.60;4.78;;;12.90;92.10;;;;;;5009861;28;20041;-72
2023/03/23 08:36:34;;;;;;;8.70;4.15;;;12.90;87.60;;;;;;5007806;28;20049;-72
2023/03/23 08:39:00;;;;;;;9.05;3.58;;;12.50;89.10;;;;;;5008946;28;20053;-72
2023/03/23 08:41:26;;;;;;;7.93;4.00;;;12.20;90.20;;;;;;4991719;28;20393;-72
2023/03/23 08:43:52;;;;;;;9.45;3.58;;;11.90;90.00;;;;;;5008882;28;20037;-72
2023/03/23 08:46:19;;;;;;;10.13;3.78;;;11.70;91.80;;;;;;5008457;28;20056;-72
2023/03/23 08:48:46;;;;;;;6.43;3.75;;;11.70;92.20;;;;;;4992439;28;20041;-72
2023/03/23 08:51:12;;;;;;;10.07;4.15;;;11.70;92.40;;;;;;5007805;28;20041;-72
2023/03/23 08:53:39;;;;;;;7.50;3.53;;;11.80;92.00;;;;;;5008384;28;20052;-72
2023/03/23 08:56:07;;;;;;;7.70;3.65;;;11.90;91.90;;;;;;5007758;28;20048;-72
2023/03/23 08:58:34;;;;;;;6.88;3.53;;;12.10;92.40;;;;;;4988444;28;20073;-72
2023/03/23 09:01:00;;;;;;;7.05;3.45;;;12.60;92.90;;;;;;5007875;28;20048;-72
2023/03/23 09:03:26;;;;;;;7.45;3.45;;;13.40;88.10;;;;;;5007240;28;20490;-72
2023/03/23 09:05:53;;;;;;;9.98;3.00;;;14.40;85.90;;;;;;5006892;28;20055;-72
2023/03/23 09:08:19;;;;;;;13.80;3.13;;;14.60;82.60;;;;;;5008235;28;20057;-72
2023/03/23 09:10:45;;;;;;;4.05;2.58;;;14.50;83.20;;;;;;5007080;28;20037;-72
2023/03/23 09:13:11;;;;;;;7.05;2.97;;;14.50;81.60;;;;;;5009394;28;20097;-71
2023/03/23 09:16:01;;;;;;;5.50;2.90;;;14.20;82.20;;;;;;5005582;28;20140;-70
2023/03/23 09:18:27;;;;;;;5.55;2.42;;;14.10;83.40;;;;;;4991007;28;20049;-71
2023/03/23 09:20:54;;;;;;;4.07;2.83;;;14.00;84.30;;;;;;5007942;28;20049;-71
2023/03/23 09:23:20;;;;;;;8.27;2.75;;;14.30;82.80;;;;;;4989864;28;20723;-70
2023/03/23 09:25:46;;;;;;;6.05;2.63;;;14.10;81.30;;;;;;5007468;28;20045;-70
2023/03/23 09:28:12;;;;;;;4.70;2.42;;;13.80;82.00;;;;;;4991123;28;20156;-71
2023/03/23 09:30:40;;;;;;;5.32;2.80;;;13.50;82.70;;;;;;4988299;28;20579;-71
2023/03/23 09:33:07;;;;;;;7.82;3.10;;;13.20;83.80;;;;;;5005547;28;20045;-72
2023/03/23 09:35:35;;;;;;;3.30;2.50;;;12.90;85.90;;;;;;5006262;28;20053;-70
2023/03/23 09:38:01;;;;;;;5.95;2.78;;;12.70;86.70;;;;;;4988602;28;20048;-71
2023/03/23 09:41:00;;;;;;;5.82;3.28;;;12.60;88.20;;;;;;5006529;28;20087;-70
2023/03/23 09:43:27;;;;;;;4.05;2.88;;;12.50;90.30;;;;;;5004523;28;20725;-70
2023/03/23 09:46:22;;;;;;;6.63;2.80;;;12.50;91.70;;;;;;5007729;28;20053;-72
2023/03/23 09:48:52;;;;;;;3.73;2.93;;;12.70;92.00;;;;;;5008735;28;20053;-72
2023/03/23 09:51:46;;;;;;;8.50;2.80;;;13.00;89.50;;;;;;5008641;28;20056;-72
2023/03/23 09:54:27;;;;;;;10.85;2.90;;;13.10;88.10;;;;;;4988227;28;20057;-74
2023/03/23 09:56:54;;;;;;;7.03;2.75;;;13.50;88.60;;;;;;5019622;22;20045;-72
2023/03/23 09:59:30;;;;;;;5.82;2.72;;;13.70;86.10;;;;;;5001244;28;20054;-72
2023/03/23 10:02:09;;;;;;;5.03;2.72;;;13.90;86.60;;;;;;4972399;28;20046;-72
2023/03/23 10:04:44;;;;;;;6.60;2.95;;;13.90;85.60;;;;;;4971041;28;20688;-72
2023/03/23 10:09:41;;;;;;;6.10;2.60;;;13.90;83.80;;;;;;4985674;28;20062;-70
2023/03/23 10:12:35;;;;;;;5.43;2.53;;;13.90;84.00;;;;;;4986580;28;20041;-70
2023/03/23 10:15:17;;;;;;;6.80;2.22;;;13.90;82.10;;;;;;4970738;28;20496;-72
2023/03/23 10:17:46;;;;;;;5.53;3.38;;;13.50;82.50;;;;;;4987802;28;20042;-70
2023/03/23 10:20:12;;;;;;;5.82;2.53;;;13.50;82.60;;;;;;4969261;28;20077;-71
2023/03/23 10:22:50;;;;;;;4.85;2.17;;;13.30;82.70;;;;;;4988133;28;20483;-72
2023/03/23 10:25:21;;;;;;;4.25;2.80;;;13.20;82.60;;;;;;4987589;28;20046;-71
2023/03/23 10:28:16;;;;;;;3.08;2.20;;;13.00;81.90;;;;;;4977845;28;20074;-70
2023/03/23 10:30:53;;;;;;;7.72;3.00;;;12.90;83.10;;;;;;4993539;28;20622;-70
2023/03/23 10:33:48;;;;;;;13.00;2.83;;;12.70;84.20;;;;;;4981086;28;20053;-69
2023/03/23 10:36:33;;;;;;;5.20;2.67;;;12.70;84.20;;;;;;4990870;28;20147;-71
2023/03/23 10:39:09;;;;;;;8.68;2.88;;;12.60;84.20;;;;;;4994171;28;20098;-71
2023/03/23 10:41:34;;;;;;;;;;;12.60;84.30;;;;;;4991003;28;20698;-68
2023/03/23 10:44:01;;;;;;;6.20;2.85;;;12.50;84.80;;;;;;4989599;28;19983;-71
2023/03/23 10:46:41;;;;;;;4.80;2.15;;;12.60;85.80;;;;;;4984232;28;20137;-72
2023/03/23 10:49:11;;;;;;;5.57;2.40;;;12.60;86.60;;;;;;4971881;28;20045;-71
2023/03/23 10:51:41;;;;;;;4.40;2.63;;;12.70;87.20;;;;;;4984549;28;20460;-69
2023/03/23 10:54:08;;;;;;;7.10;2.60;;;12.80;87.20;;;;;;4985377;28;20140;-71
2023/03/23 10:56:44;;;;;;;4.57;2.28;;;13.10;87.00;;;;;;4989376;28;20042;-71
2023/03/23 10:59:30;;;;;;;4.88;2.53;;;13.40;85.20;;;;;;4987061;28;20539;-69
2023/03/23 11:02:02;;;;;;;9.45;2.50;;;14.00;83.20;;;;;;4991870;28;20097;-71
2023/03/23 11:04:27;;;;;;;6.18;2.40;;;14.40;81.00;;;;;;4989833;28;20477;-69
2023/03/23 11:06:59;;;;;;;3.97;1.98;;;14.70;80.60;;;;;;4985543;28;20041;-69
2023/03/23 11:09:50;;;;;;;8.63;2.17;;;14.60;79.60;;;;;;4990826;28;20132;-69
2023/03/23 11:12:18;;;;;;;4.80;1.70;;;14.60;78.40;;;;;;4987795;28;20076;-69
2023/03/23 11:14:45;;;;;;;3.08;1.63;;;14.40;76.80;;;;;;5004565;28;20163;-71
2023/03/23 11:17:26;;;;;;;5.55;1.73;;;14.30;77.00;;;;;;4983063;28;20486;-69
2023/03/23 11:19:56;;;;;;;7.30;1.80;;;14.20;77.80;;;;;;4978915;28;20220;-69
2023/03/23 11:22:27;;;;;;;5.07;1.90;;;14.20;77.70;;;;;;4979583;28;20473;-69
2023/03/23 11:27:28;;;;;;;8.43;1.70;;;14.90;78.50;;;;;;5009123;28;20057;-91
2023/03/23 11:30:00;;;;;;;6.18;1.52;;;15.40;74.40;;;;;;4985166;28;20038;-92
2023/03/23 11:32:29;;;;;;;10.27;2.30;;;15.20;75.30;;;;;;4962467;28;20479;-92
2023/03/23 11:35:15;;;;;;;4.55;1.23;;;15.40;74.60;;;;;;4993730;28;20506;-90
2023/03/23 11:37:42;;;;;;;8.75;2.08;;;15.60;73.20;;;;;;4979420;28;20057;-90
2023/03/23 11:40:18;;;;;;;3.70;1.65;;;15.50;73.30;;;;;;4980391;28;20034;-92
2023/03/23 11:42:46;;;;;;;5.28;1.70;;;15.50;71.90;;;;;;4985879;28;20045;-92
2023/03/23 11:45:18;;;;;;;4.13;1.67;;;15.30;72.00;;;;;;4998857;28;20096;-91
2023/03/23 11:48:06;;;;;;;4.60;1.38;;;15.10;71.40;;;;;;5013043;28;20049;-92
2023/03/23 11:50:51;;;;;;;4.97;2.13;;;15.30;74.40;;;;;;4968019;28;20049;-93
2023/03/23 11:53:45;;;;;;;5.88;1.52;;;15.10;71.90;;;;;;4968650;28;20506;-93
2023/03/23 11:56:17;;;;;;;11.50;2.03;;;15.00;71.00;;;;;;4977603;28;20402;-92
2023/03/23 11:58:44;;;;;;;8.70;1.60;;;15.00;70.80;;;;;;4979495;28;20046;-92
2023/03/23 12:01:48;;;;;;;10.32;1.40;;;15.00;71.70;;;;;;4979222;28;20042;-93
2023/03/23 12:04:33;;;;;;;10.60;2.13;;;14.70;72.40;;;;;;4988791;28;20037;-92
2023/03/23 12:07:08;;;;;;;10.27;1.77;;;16.10;71.50;;;;;;5008102;23;20092;-89
2023/03/23 12:10:03;;;;;;;6.30;1.53;;;16.70;70.70;;;;;;5011417;28;20037;-90
2023/03/23 12:12:40;;;;;;;19.80;2.10;;;18.00;65.60;;;;;;5007767;28;20400;-91
2023/03/23 12:15:29;;;;;;;11.88;1.75;;;17.80;62.80;;;;;;4995764;28;20064;-92
2023/03/23 12:18:19;;;;;;;7.60;1.77;;;17.50;64.80;;;;;;4997280;28;20042;-90
2023/03/23 12:21:13;;;;;;;15.10;1.55;;;16.70;62.50;;;;;;4999624;28;20763;-91
2023/03/23 12:23:47;;;;;;;9.80;1.52;;;16.10;63.90;;;;;;4998979;28;20042;-91
2023/03/23 12:26:19;;;;;;;9.73;2.03;;;15.60;64.70;;;;;;4994836;28;20125;-90
2023/03/23 12:29:14;;;;;;;6.80;1.58;;;15.40;68.20;;;;;;5001271;28;20049;-92
2023/03/23 12:32:02;;;;;;;6.50;1.60;;;15.10;66.50;;;;;;4976768;28;20367;-92
2023/03/23 12:34:36;;;;;;;5.97;1.70;;;14.80;68.10;;;;;;4990603;28;20078;-90
2023/03/23 12:37:08;;;;;;;8.30;1.33;;;14.70;68.50;;;;;;4996134;28;20751;-89
2023/03/23 12:39:53;;;;;;;13.00;1.90;;;14.60;69.00;;;;;;5002331;28;20048;-91
2023/03/23 12:42:31;;;;;;;6.45;1.50;;;14.50;70.50;;;;;;5006248;28;20046;-92
2023/03/23 12:45:37;;;;;;;13.27;1.65;;;14.50;68.20;;;;;;4993944;28;20088;-92
2023/03/23 12:48:11;;;;;;;9.93;1.70;;;14.40;67.90;;;;;;5015059;28;20046;-91
2023/03/23 12:51:03;;;;;;;10.40;2.08;;;14.30;69.50;;;;;;5010207;28;20046;-92
2023/03/23 12:53:43;;;;;;;11.98;1.75;;;14.20;67.50;;;;;;4972694;28;20041;-90
2023/03/23 12:56:25;;;;;;;12.20;2.00;;;14.20;68.90;;;;;;5016099;28;20045;-91
2023/03/23 13:01:41;;;;;;;11.05;2.10;;;14.30;69.10;;;;;;5067698;22;20096;-71
2023/03/23 13:04:15;;;;;;;9.60;1.70;;;14.20;69.80;;;;;;5017914;28;20033;-71
2023/03/23 13:06:44;;;;;;;12.77;1.77;;;14.10;69.70;;;;;;4986095;28;20410;-71
2023/03/23 13:09:24;;;;;;;11.07;1.58;;;14.00;70.30;;;;;;5004303;28;20059;-71